createdAt,value
2019-03-22T00:00:36.038Z,24.90
2019-03-22T00:01:36.036Z,26.10
2019-03-22T00:02:36.031Z,22.50
2019-03-22T00:03:36.031Z,23.00
2019-03-22T00:04:36.061Z,23.10
2019-03-22T00:05:36.021Z,23.40
2019-03-22T00:06:36.015Z,22.30
2019-03-22T00:07:36.009Z,20.20
2019-03-22T00:08:36.008Z,18.90
2019-03-22T00:09:36.041Z,20.90
2019-03-22T00:10:36.003Z,21.20
2019-03-22T00:11:35.992Z,20.20
2019-03-22T00:12:36.029Z,22.90
2019-03-22T00:13:35.993Z,22.70
2019-03-22T00:14:37.170Z,24.80
2019-03-22T00:15:35.980Z,21.10
2019-03-22T00:16:35.968Z,23.10
2019-03-22T00:17:35.969Z,20.10
2019-03-22T00:18:36.006Z,21.70
2019-03-22T00:19:35.963Z,24.90
2019-03-22T00:20:35.964Z,18.70
2019-03-22T00:21:35.956Z,22.20
2019-03-22T00:22:35.951Z,24.50
2019-03-22T00:23:35.985Z,22.00
2019-03-22T00:24:35.980Z,23.80
2019-03-22T00:25:35.942Z,22.30
2019-03-22T00:26:35.933Z,22.80
2019-03-22T00:27:35.926Z,22.40
2019-03-22T00:28:35.936Z,22.00
2019-03-22T00:29:35.958Z,23.30
2019-03-22T00:30:35.916Z,23.80
2019-03-22T00:31:35.914Z,24.60
2019-03-22T00:32:35.910Z,24.10
2019-03-22T00:33:35.907Z,24.40
2019-03-22T00:34:35.933Z,22.80
2019-03-22T00:35:35.929Z,21.30
2019-03-22T00:36:35.887Z,25.20
2019-03-22T00:37:35.892Z,25.20
2019-03-22T00:38:35.890Z,23.60
2019-03-22T00:39:35.905Z,24.40
2019-03-22T00:40:35.877Z,24.70
2019-03-22T00:41:35.903Z,26.00
2019-03-22T00:42:35.864Z,25.20
2019-03-22T00:43:35.864Z,23.50
2019-03-22T00:44:35.888Z,25.70
2019-03-22T00:45:35.853Z,26.20
2019-03-22T00:46:35.844Z,25.20
2019-03-22T00:47:35.887Z,23.00
2019-03-22T00:48:35.841Z,29.30
2019-03-22T00:49:35.870Z,29.00
2019-03-22T00:50:35.833Z,27.40
2019-03-22T00:51:35.827Z,27.10
2019-03-22T00:52:35.821Z,24.60
2019-03-22T00:53:35.825Z,27.60
2019-03-22T00:54:35.820Z,25.20
2019-03-22T00:55:35.851Z,25.20
2019-03-22T00:56:35.808Z,23.70
2019-03-22T00:57:35.800Z,25.10
2019-03-22T00:58:35.793Z,23.60
2019-03-22T00:59:35.794Z,26.50
2019-03-22T01:00:35.847Z,24.20
2019-03-22T01:01:35.782Z,25.20
2019-03-22T01:02:35.777Z,25.40
2019-03-22T01:03:35.774Z,26.90
2019-03-22T01:04:35.773Z,25.80
2019-03-22T01:05:35.801Z,29.30
2019-03-22T01:06:35.758Z,26.80
2019-03-22T01:07:35.755Z,22.50
2019-03-22T01:08:35.755Z,25.70
2019-03-22T01:09:35.749Z,27.30
2019-03-22T01:10:35.780Z,24.20
2019-03-22T01:11:35.741Z,26.60
2019-03-22T01:12:35.736Z,27.10
2019-03-22T01:13:35.742Z,24.70
2019-03-22T01:14:35.730Z,26.00
2019-03-22T01:15:35.762Z,25.70
2019-03-22T01:16:35.713Z,25.90
2019-03-22T01:17:35.716Z,27.70
2019-03-22T01:18:35.710Z,28.20
2019-03-22T01:19:35.704Z,25.00
2019-03-22T01:20:35.738Z,26.50
2019-03-22T01:21:35.697Z,26.20
2019-03-22T01:22:35.693Z,26.70
2019-03-22T01:23:35.686Z,26.60
2019-03-22T01:24:35.681Z,25.00
2019-03-22T01:25:35.706Z,27.70
2019-03-22T01:26:35.672Z,27.30
2019-03-22T01:27:40.342Z,28.90
2019-03-22T01:28:35.666Z,26.20
2019-03-22T01:29:35.656Z,27.00
2019-03-22T01:30:35.661Z,26.20
2019-03-22T01:31:35.690Z,27.90
2019-03-22T01:32:35.671Z,22.50
2019-03-22T01:33:35.641Z,25.40
2019-03-22T01:34:35.646Z,28.50
2019-03-22T01:35:35.675Z,29.50
2019-03-22T01:36:35.630Z,28.80
2019-03-22T01:37:35.627Z,33.20
2019-03-22T01:38:35.628Z,27.40
2019-03-22T01:39:35.611Z,30.20
2019-03-22T01:40:35.633Z,28.80
2019-03-22T01:41:35.642Z,31.60
2019-03-22T01:42:35.603Z,32.50
2019-03-22T01:43:35.598Z,29.50
2019-03-22T01:44:35.598Z,30.50
2019-03-22T01:45:35.627Z,32.80
2019-03-22T01:46:35.582Z,33.20
2019-03-22T01:47:35.578Z,30.20
2019-03-22T01:48:35.570Z,30.00
2019-03-22T01:49:35.574Z,30.00
2019-03-22T01:50:35.602Z,31.20
2019-03-22T01:51:35.559Z,32.60
2019-03-22T01:52:35.563Z,29.50
2019-03-22T01:53:35.547Z,30.10
2019-03-22T01:54:35.543Z,29.10
2019-03-22T01:55:35.575Z,31.40
2019-03-22T01:56:35.570Z,35.00
2019-03-22T01:57:35.534Z,31.00
2019-03-22T01:58:35.527Z,30.20
2019-03-22T01:59:35.525Z,29.40
2019-03-22T02:00:35.518Z,29.30
2019-03-22T02:01:35.511Z,30.50
2019-03-22T02:02:35.544Z,31.60
2019-03-22T02:03:35.503Z,30.20
2019-03-22T02:04:35.501Z,31.80
2019-03-22T02:05:35.497Z,33.30
2019-03-22T02:06:35.529Z,33.20
2019-03-22T02:07:35.483Z,32.00
2019-03-22T02:08:35.481Z,32.10
2019-03-22T02:09:35.476Z,34.10
2019-03-22T02:10:35.473Z,38.20
2019-03-22T02:11:35.498Z,37.60
2019-03-22T02:12:35.465Z,35.40
2019-03-22T02:13:35.463Z,36.30
2019-03-22T02:14:35.455Z,36.10
2019-03-22T02:15:35.444Z,37.10
2019-03-22T02:16:35.480Z,39.60
2019-03-22T02:17:35.437Z,32.90
2019-03-22T02:18:35.432Z,32.70
2019-03-22T02:19:35.430Z,38.30
2019-03-22T02:20:35.425Z,35.70
2019-03-22T02:21:35.448Z,32.80
2019-03-22T02:22:35.452Z,34.40
2019-03-22T02:23:35.448Z,33.20
2019-03-22T02:24:35.404Z,34.90
2019-03-22T02:25:35.399Z,31.50
2019-03-22T02:26:35.431Z,34.50
2019-03-22T02:27:35.388Z,32.50
2019-03-22T02:28:35.381Z,34.10
2019-03-22T02:29:35.380Z,35.70
2019-03-22T02:30:35.378Z,37.00
2019-03-22T02:31:35.415Z,28.80
2019-03-22T02:32:35.363Z,34.90
2019-03-22T02:33:35.401Z,37.30
2019-03-22T02:34:35.361Z,38.00
2019-03-22T02:35:35.357Z,36.00
2019-03-22T02:36:35.378Z,35.80
2019-03-22T02:37:35.346Z,36.30
2019-03-22T02:38:35.336Z,36.20
2019-03-22T02:39:35.422Z,34.90
2019-03-22T02:40:35.352Z,37.20
2019-03-22T02:41:35.360Z,38.50
2019-03-22T02:42:35.327Z,35.70
2019-03-22T02:43:35.313Z,38.00
2019-03-22T02:44:35.308Z,42.00
2019-03-22T02:45:35.308Z,37.60
2019-03-22T02:46:35.331Z,38.30
2019-03-22T02:47:35.324Z,36.70
2019-03-22T02:48:35.293Z,38.90
2019-03-22T02:49:35.284Z,39.20
2019-03-22T02:50:35.289Z,38.40
2019-03-22T02:51:35.305Z,40.20
2019-03-22T02:52:35.273Z,38.00
2019-03-22T02:53:35.319Z,34.80
2019-03-22T02:54:35.259Z,32.50
2019-03-22T02:55:35.257Z,33.30
2019-03-22T02:56:35.296Z,37.70
2019-03-22T02:57:35.241Z,37.10
2019-03-22T02:58:35.247Z,36.70
2019-03-22T02:59:35.275Z,39.10
2019-03-22T03:00:35.243Z,41.00
2019-03-22T03:01:35.260Z,40.70
2019-03-22T03:02:35.221Z,38.50
2019-03-22T03:03:35.220Z,38.30
2019-03-22T03:04:35.212Z,37.80
2019-03-22T03:05:35.211Z,37.50
2019-03-22T03:06:35.230Z,42.70
2019-03-22T03:07:35.234Z,48.20
2019-03-22T03:08:35.197Z,41.90
2019-03-22T03:09:35.191Z,37.70
2019-03-22T03:10:35.186Z,40.10
2019-03-22T03:11:35.222Z,38.40
2019-03-22T03:12:35.180Z,45.40
2019-03-22T03:13:35.171Z,43.30
2019-03-22T03:14:35.159Z,42.70
2019-03-22T03:15:35.167Z,41.00
2019-03-22T03:16:35.214Z,38.90
2019-03-22T03:17:35.185Z,43.20
2019-03-22T03:18:35.153Z,38.10
2019-03-22T03:19:35.144Z,38.40
2019-03-22T03:20:35.137Z,39.40
2019-03-22T03:21:35.160Z,35.10
2019-03-22T03:22:35.126Z,37.60
2019-03-22T03:23:35.169Z,40.00
2019-03-22T03:24:35.128Z,37.80
2019-03-22T03:25:35.128Z,36.60
2019-03-22T03:26:35.134Z,36.70
2019-03-22T03:27:35.095Z,38.10
2019-03-22T03:28:37.204Z,38.60
2019-03-22T03:29:35.134Z,40.90
2019-03-22T03:30:35.082Z,43.70
2019-03-22T03:31:35.088Z,37.50
2019-03-22T03:32:35.077Z,40.60
2019-03-22T03:33:35.106Z,40.30
2019-03-22T03:34:35.071Z,37.40
2019-03-22T03:35:35.066Z,39.60
2019-03-22T03:36:35.185Z,38.80
2019-03-22T03:37:35.051Z,39.10
2019-03-22T03:38:35.043Z,41.40
2019-03-22T03:39:35.086Z,42.90
2019-03-22T03:40:35.044Z,37.60
2019-03-22T03:41:35.034Z,40.60
2019-03-22T03:42:35.067Z,43.10
2019-03-22T03:43:35.014Z,45.10
2019-03-22T03:44:35.023Z,43.00
2019-03-22T03:45:35.012Z,45.10
2019-03-22T03:46:35.011Z,44.90
2019-03-22T03:47:35.045Z,42.90
2019-03-22T03:48:35.002Z,44.10
2019-03-22T03:49:35.007Z,40.60
2019-03-22T03:50:34.988Z,38.70
2019-03-22T03:51:34.988Z,41.30
2019-03-22T03:52:35.021Z,42.80
2019-03-22T03:53:34.974Z,44.20
2019-03-22T03:54:34.971Z,38.50
2019-03-22T03:55:34.971Z,41.10
2019-03-22T03:56:34.959Z,43.90
2019-03-22T03:57:34.984Z,42.80
2019-03-22T03:58:34.983Z,41.30
2019-03-22T03:59:34.939Z,45.20
2019-03-22T04:00:34.937Z,46.90
2019-03-22T04:01:34.933Z,46.10
2019-03-22T04:02:34.959Z,49.20
2019-03-22T04:03:34.922Z,45.60
2019-03-22T04:04:34.961Z,47.40
2019-03-22T04:05:34.915Z,45.90
2019-03-22T04:06:34.922Z,49.90
2019-03-22T04:07:34.941Z,48.20
2019-03-22T04:08:34.896Z,50.40
2019-03-22T04:09:34.898Z,46.80
2019-03-22T04:10:34.938Z,42.20
2019-03-22T04:11:34.882Z,41.40
2019-03-22T04:12:34.902Z,45.80
2019-03-22T04:13:34.875Z,42.00
2019-03-22T04:14:34.871Z,41.90
2019-03-22T04:15:34.867Z,44.60
2019-03-22T04:16:34.895Z,42.80
2019-03-22T04:17:34.874Z,45.80
2019-03-22T04:18:34.853Z,39.30
2019-03-22T04:19:34.838Z,40.50
2019-03-22T04:20:34.853Z,44.00
2019-03-22T04:21:34.831Z,43.30
2019-03-22T04:22:36.377Z,44.30
2019-03-22T04:23:34.934Z,41.30
2019-03-22T04:24:34.820Z,44.80
2019-03-22T04:25:34.817Z,44.40
2019-03-22T04:26:34.816Z,45.10
2019-03-22T04:27:34.802Z,42.20
2019-03-22T04:28:34.874Z,43.60
2019-03-22T04:29:34.795Z,41.20
2019-03-22T04:30:34.788Z,39.60
2019-03-22T04:31:34.781Z,43.80
2019-03-22T04:32:34.776Z,40.00
2019-03-22T04:33:34.842Z,39.30
2019-03-22T04:34:34.804Z,41.40
2019-03-22T04:35:34.764Z,42.50
2019-03-22T04:36:34.764Z,45.90
2019-03-22T04:37:34.747Z,56.40
2019-03-22T04:38:34.776Z,57.20
2019-03-22T04:39:34.749Z,66.70
2019-03-22T04:40:34.778Z,63.30
2019-03-22T04:41:34.731Z,50.60
2019-03-22T04:42:34.731Z,51.00
2019-03-22T04:43:34.752Z,47.70
2019-03-22T04:44:34.714Z,50.90
2019-03-22T04:45:34.717Z,46.80
2019-03-22T04:46:34.750Z,45.00
2019-03-22T04:47:34.704Z,45.50
2019-03-22T04:48:34.726Z,45.50
2019-03-22T04:49:34.693Z,43.60
2019-03-22T04:50:34.691Z,43.10
2019-03-22T04:51:34.689Z,43.10
2019-03-22T04:52:34.717Z,42.40
2019-03-22T04:53:34.703Z,44.70
2019-03-22T04:54:34.664Z,43.90
2019-03-22T04:55:34.662Z,44.40
2019-03-22T04:56:34.659Z,44.70
2019-03-22T04:57:34.663Z,42.30
2019-03-22T04:58:34.687Z,42.60
2019-03-22T04:59:34.646Z,41.50
2019-03-22T05:00:34.646Z,37.60
2019-03-22T05:01:34.633Z,43.20
2019-03-22T05:02:34.632Z,42.90
2019-03-22T05:03:34.655Z,46.00
2019-03-22T05:04:34.617Z,42.10
2019-03-22T05:05:34.615Z,45.90
2019-03-22T05:06:34.602Z,42.70
2019-03-22T05:07:34.598Z,48.30
2019-03-22T05:08:34.631Z,46.40
2019-03-22T05:09:34.647Z,41.80
2019-03-22T05:10:34.590Z,44.00
2019-03-22T05:11:34.609Z,48.20
2019-03-22T05:12:34.579Z,52.10
2019-03-22T05:13:34.603Z,38.00
2019-03-22T05:14:34.568Z,45.40
2019-03-22T05:15:34.602Z,41.70
2019-03-22T05:16:34.558Z,46.40
2019-03-22T05:17:34.549Z,49.00
2019-03-22T05:18:34.574Z,45.80
2019-03-22T05:19:35.320Z,46.50
2019-03-22T05:20:34.542Z,45.90
2019-03-22T05:21:34.570Z,48.80
2019-03-22T05:22:34.526Z,50.00
2019-03-22T05:23:34.553Z,47.10
2019-03-22T05:24:34.520Z,47.90
2019-03-22T05:25:34.515Z,45.80
2019-03-22T05:26:34.507Z,46.80
2019-03-22T05:27:34.505Z,44.40
2019-03-22T05:28:34.502Z,43.50
2019-03-22T05:29:34.540Z,42.80
2019-03-22T05:30:35.314Z,47.30
2019-03-22T05:31:34.488Z,45.90
2019-03-22T05:32:34.489Z,44.90
2019-03-22T05:33:34.476Z,41.30
2019-03-22T05:34:34.503Z,42.10
2019-03-22T05:35:34.520Z,42.80
2019-03-22T05:36:34.462Z,39.80
2019-03-22T05:37:34.453Z,43.30
2019-03-22T05:38:34.448Z,42.20
2019-03-22T05:39:34.484Z,43.90
2019-03-22T05:40:34.442Z,44.90
2019-03-22T05:41:34.441Z,44.90
2019-03-22T05:42:34.432Z,41.20
2019-03-22T05:43:34.423Z,43.10
2019-03-22T05:44:34.454Z,45.00
2019-03-22T05:45:34.414Z,36.30
2019-03-22T05:46:34.412Z,43.90
2019-03-22T05:47:34.409Z,41.60
2019-03-22T05:48:34.417Z,39.20
2019-03-22T05:49:34.436Z,44.70
2019-03-22T05:50:34.400Z,60.40
2019-03-22T05:51:34.392Z,70.70
2019-03-22T05:52:34.379Z,57.50
2019-03-22T05:53:34.379Z,36.90
2019-03-22T05:54:34.418Z,30.60
2019-03-22T05:55:34.372Z,30.20
2019-03-22T05:56:34.359Z,31.80
2019-03-22T05:57:34.363Z,33.00
2019-03-22T05:58:34.360Z,36.30
2019-03-22T05:59:42.577Z,30.60
2019-03-22T06:00:34.353Z,32.30
2019-03-22T06:01:34.350Z,35.20
2019-03-22T06:02:34.343Z,27.90
2019-03-22T06:03:34.336Z,24.40
2019-03-22T06:04:34.368Z,28.90
2019-03-22T06:05:34.335Z,28.00
2019-03-22T06:06:34.320Z,29.80
2019-03-22T06:07:36.885Z,27.60
2019-03-22T06:08:34.307Z,30.20
2019-03-22T06:09:34.363Z,31.20
2019-03-22T06:10:34.465Z,33.80
2019-03-22T06:11:34.302Z,28.50
2019-03-22T06:12:34.291Z,26.60
2019-03-22T06:13:34.300Z,27.10
2019-03-22T06:14:34.333Z,27.10
2019-03-22T06:15:34.287Z,30.80
2019-03-22T06:16:34.281Z,27.50
2019-03-22T06:17:34.291Z,49.30
2019-03-22T06:18:34.278Z,39.10
2019-03-22T06:19:34.302Z,29.00
2019-03-22T06:20:34.309Z,28.90
2019-03-22T06:21:34.267Z,25.30
2019-03-22T06:22:34.266Z,26.80
2019-03-22T06:23:34.263Z,32.10
2019-03-22T06:24:34.291Z,25.40
2019-03-22T06:25:34.259Z,24.40
2019-03-22T06:26:34.251Z,31.60
2019-03-22T06:27:34.246Z,25.10
2019-03-22T06:28:34.245Z,30.20
2019-03-22T06:29:34.267Z,26.30
2019-03-22T06:30:34.274Z,25.40
2019-03-22T06:31:34.234Z,27.10
2019-03-22T06:32:34.233Z,26.30
2019-03-22T06:33:34.233Z,28.10
2019-03-22T06:34:34.241Z,24.70
2019-03-22T06:35:34.279Z,24.10
2019-03-22T06:36:34.231Z,32.10
2019-03-22T06:37:34.228Z,30.40
2019-03-22T06:38:34.214Z,29.90
2019-03-22T06:39:34.233Z,31.80
2019-03-22T06:40:34.270Z,28.20
2019-03-22T06:41:34.213Z,28.40
2019-03-22T06:42:34.207Z,27.40
2019-03-22T06:43:34.246Z,26.70
2019-03-22T06:44:34.208Z,27.50
2019-03-22T06:45:34.234Z,24.90
2019-03-22T06:46:34.239Z,26.20
2019-03-22T06:47:34.243Z,22.20
2019-03-22T06:48:34.210Z,30.30
2019-03-22T06:49:34.200Z,28.30
2019-03-22T06:50:34.231Z,26.30
2019-03-22T06:51:34.196Z,22.90
2019-03-22T06:52:34.193Z,23.70
2019-03-22T06:53:34.200Z,22.40
2019-03-22T06:54:34.196Z,20.60
2019-03-22T06:55:34.232Z,18.30
2019-03-22T06:56:34.195Z,19.00
2019-03-22T06:57:34.189Z,13.70
2019-03-22T06:58:34.192Z,13.90
2019-03-22T06:59:34.196Z,15.70
2019-03-22T07:00:34.236Z,15.40
2019-03-22T07:01:34.193Z,14.30
2019-03-22T07:02:34.198Z,18.10
2019-03-22T07:03:34.200Z,13.90
2019-03-22T07:04:34.202Z,15.60
2019-03-22T07:05:34.237Z,16.20
2019-03-22T07:06:34.200Z,15.70
2019-03-22T07:07:34.231Z,16.20
2019-03-22T07:08:34.200Z,15.40
2019-03-22T07:09:34.206Z,17.10
2019-03-22T07:10:34.245Z,17.80
2019-03-22T07:11:34.204Z,17.90
2019-03-22T07:12:34.207Z,18.90
2019-03-22T07:13:34.216Z,17.00
2019-03-22T07:14:34.213Z,17.20
2019-03-22T07:15:34.244Z,17.70
2019-03-22T07:16:34.223Z,19.70
2019-03-22T07:17:34.217Z,18.60
2019-03-22T07:18:34.220Z,18.70
2019-03-22T07:19:34.222Z,18.80
2019-03-22T07:20:34.219Z,18.30
2019-03-22T07:21:34.260Z,18.90
2019-03-22T07:22:34.229Z,19.50
2019-03-22T07:23:34.223Z,16.50
2019-03-22T07:24:34.228Z,17.00
2019-03-22T07:25:34.247Z,16.30
2019-03-22T07:26:34.276Z,16.60
2019-03-22T07:27:34.242Z,17.30
2019-03-22T07:28:34.253Z,16.10
2019-03-22T07:29:34.313Z,15.20
2019-03-22T07:30:34.245Z,18.80
2019-03-22T07:31:35.865Z,16.00
2019-03-22T07:32:34.255Z,15.60
2019-03-22T07:33:34.264Z,16.40
2019-03-22T07:34:34.264Z,16.90
2019-03-22T07:35:34.270Z,18.00
2019-03-22T07:36:34.309Z,18.30
2019-03-22T07:37:34.271Z,16.30
2019-03-22T07:38:34.283Z,15.60
2019-03-22T07:39:34.283Z,19.30
2019-03-22T07:40:34.296Z,16.70
2019-03-22T07:41:34.324Z,15.90
2019-03-22T07:42:34.292Z,17.60
2019-03-22T07:43:34.296Z,16.80
2019-03-22T07:44:34.305Z,16.10
2019-03-22T07:45:34.309Z,17.00
2019-03-22T07:46:34.343Z,16.30
2019-03-22T07:47:34.313Z,30.10
2019-03-22T07:48:34.320Z,18.60
2019-03-22T07:49:34.324Z,29.20
2019-03-22T07:50:34.327Z,17.30
2019-03-22T07:51:34.377Z,16.70
2019-03-22T07:52:34.335Z,17.50
2019-03-22T07:53:34.348Z,18.50
2019-03-22T07:54:34.347Z,18.80
2019-03-22T07:55:34.355Z,17.50
2019-03-22T07:56:34.392Z,16.10
2019-03-22T07:57:34.413Z,19.00
2019-03-22T07:58:34.378Z,17.20
2019-03-22T07:59:34.389Z,17.20
2019-03-22T08:00:34.380Z,17.10
2019-03-22T08:01:34.432Z,17.20
2019-03-22T08:02:34.397Z,19.10
2019-03-22T08:03:34.400Z,18.60
2019-03-22T08:04:34.410Z,16.40
2019-03-22T08:05:34.421Z,16.10
2019-03-22T08:06:34.465Z,18.10
2019-03-22T08:07:34.436Z,15.90
2019-03-22T08:08:34.440Z,15.80
2019-03-22T08:09:34.476Z,17.20
2019-03-22T08:10:34.534Z,16.20
2019-03-22T08:11:34.485Z,15.30
2019-03-22T08:12:34.525Z,16.50
2019-03-22T08:13:34.481Z,16.10
2019-03-22T08:14:34.489Z,17.30
2019-03-22T08:15:34.504Z,16.80
2019-03-22T08:16:34.498Z,17.80
2019-03-22T08:17:34.538Z,16.40
2019-03-22T08:18:34.558Z,18.50
2019-03-22T08:19:34.553Z,17.50
2019-03-22T08:20:34.533Z,16.20
2019-03-22T08:21:34.576Z,18.00
2019-03-22T08:22:34.551Z,18.10
2019-03-22T08:23:34.561Z,16.20
2019-03-22T08:24:34.568Z,17.40
2019-03-22T08:25:34.575Z,16.70
2019-03-22T08:26:34.626Z,16.60
2019-03-22T08:27:34.627Z,14.30
2019-03-22T08:28:34.607Z,16.80
2019-03-22T08:29:34.631Z,18.40
2019-03-22T08:30:42.868Z,16.60
2019-03-22T08:31:34.666Z,16.20
2019-03-22T08:32:34.659Z,14.70
2019-03-22T08:33:34.669Z,13.80
2019-03-22T08:34:34.657Z,16.60
2019-03-22T08:35:34.700Z,15.20
2019-03-22T08:36:34.756Z,15.60
2019-03-22T08:37:34.738Z,17.70
2019-03-22T08:38:34.710Z,16.00
2019-03-22T08:39:34.713Z,17.90
2019-03-22T08:40:34.750Z,15.50
2019-03-22T08:41:34.738Z,15.50
2019-03-22T08:42:34.786Z,15.40
2019-03-22T08:43:34.758Z,16.20
2019-03-22T08:44:34.770Z,14.80
2019-03-22T08:45:34.815Z,16.00
2019-03-22T08:46:34.793Z,14.40
2019-03-22T08:47:34.911Z,15.70
2019-03-22T08:48:34.815Z,17.40
2019-03-22T08:49:34.911Z,16.20
2019-03-22T08:50:34.996Z,15.50
2019-03-22T08:51:34.847Z,13.80
2019-03-22T08:52:34.919Z,14.40
2019-03-22T08:53:34.917Z,16.40
2019-03-22T08:54:37.947Z,16.10
2019-03-22T08:55:34.898Z,16.00
2019-03-22T08:56:36.226Z,15.10
2019-03-22T08:57:34.963Z,15.10
2019-03-22T08:58:34.951Z,15.90
2019-03-22T08:59:34.946Z,17.40
2019-03-22T09:00:39.447Z,16.60
2019-03-22T09:01:34.980Z,15.50
2019-03-22T09:02:35.011Z,17.10
2019-03-22T09:03:34.998Z,15.70
2019-03-22T09:04:35.006Z,15.90
2019-03-22T09:05:35.024Z,15.00
2019-03-22T09:06:35.069Z,16.30
2019-03-22T09:07:35.083Z,15.50
2019-03-22T09:08:35.099Z,16.80
2019-03-22T09:09:41.388Z,16.40
2019-03-22T09:10:35.184Z,17.00
2019-03-22T09:11:35.094Z,15.90
2019-03-22T09:12:35.139Z,15.20
2019-03-22T09:13:35.156Z,17.60
2019-03-22T09:14:35.140Z,15.20
2019-03-22T09:15:41.233Z,17.20
2019-03-22T09:16:35.156Z,16.60
2019-03-22T09:17:35.207Z,15.90
2019-03-22T09:18:35.178Z,15.80
2019-03-22T09:19:35.234Z,17.70
2019-03-22T09:20:35.205Z,18.50
2019-03-22T09:21:35.253Z,15.50
2019-03-22T09:22:35.272Z,16.90
2019-03-22T09:23:35.263Z,14.90
2019-03-22T09:24:39.359Z,18.30
2019-03-22T09:25:35.307Z,15.10
2019-03-22T09:26:47.161Z,16.30
2019-03-22T09:27:36.610Z,17.10
2019-03-22T09:28:35.330Z,16.30
2019-03-22T09:29:35.339Z,15.00
2019-03-22T09:30:35.406Z,17.60
2019-03-22T09:31:35.380Z,15.30
2019-03-22T09:32:35.423Z,16.90
2019-03-22T09:33:35.469Z,17.00
2019-03-22T09:34:35.372Z,18.30
2019-03-22T09:35:35.419Z,15.60
2019-03-22T09:36:35.430Z,15.80
2019-03-22T09:37:35.448Z,15.10
2019-03-22T09:38:35.480Z,16.70
2019-03-22T09:39:35.485Z,14.00
2019-03-22T09:40:35.456Z,14.60
2019-03-22T09:41:35.468Z,15.50
2019-03-22T09:42:35.494Z,23.30
2019-03-22T09:43:35.532Z,16.00
2019-03-22T09:44:43.427Z,14.00
2019-03-22T09:45:35.528Z,14.20
2019-03-22T09:46:35.564Z,15.10
2019-03-22T09:47:35.572Z,16.30
2019-03-22T09:48:35.626Z,15.20
2019-03-22T09:49:35.617Z,15.90
2019-03-22T09:50:35.725Z,15.10
2019-03-22T09:51:35.660Z,16.60
2019-03-22T09:52:35.706Z,14.30
2019-03-22T09:53:35.715Z,16.80
2019-03-22T09:54:35.739Z,13.50
2019-03-22T09:55:35.697Z,15.30
2019-03-22T09:56:46.444Z,15.20
2019-03-22T09:57:35.733Z,14.10
2019-03-22T09:58:36.510Z,14.60
2019-03-22T09:59:35.802Z,16.20
2019-03-22T10:00:35.797Z,13.60
2019-03-22T10:01:35.824Z,13.80
2019-03-22T10:02:35.894Z,14.40
2019-03-22T10:03:35.869Z,13.60
2019-03-22T10:04:35.906Z,13.30
2019-03-22T10:05:35.940Z,14.40
2019-03-22T10:06:35.965Z,14.00
2019-03-22T10:07:35.908Z,13.70
2019-03-22T10:08:35.999Z,15.40
2019-03-22T10:09:35.983Z,13.40
2019-03-22T10:10:36.019Z,12.30
2019-03-22T10:11:35.979Z,13.50
2019-03-22T10:12:36.001Z,14.70
2019-03-22T10:13:36.073Z,12.60
2019-03-22T10:14:36.072Z,12.70
2019-03-22T10:15:36.113Z,13.40
2019-03-22T10:16:36.113Z,13.30
2019-03-22T10:17:36.130Z,12.50
2019-03-22T10:18:37.011Z,13.40
2019-03-22T10:19:36.183Z,12.90
2019-03-22T10:20:36.256Z,14.80
2019-03-22T10:21:36.181Z,12.80
2019-03-22T10:22:36.232Z,12.90
2019-03-22T10:23:36.266Z,13.10
2019-03-22T10:24:36.284Z,11.60
2019-03-22T10:25:36.239Z,12.40
2019-03-22T10:26:36.311Z,12.70
2019-03-22T10:27:36.311Z,11.60
2019-03-22T10:28:36.294Z,12.70
2019-03-22T10:29:36.362Z,13.40
2019-03-22T10:30:36.342Z,13.70
2019-03-22T10:31:37.652Z,13.00
2019-03-22T10:32:36.471Z,11.50
2019-03-22T10:33:36.409Z,11.40
2019-03-22T10:34:39.572Z,14.50
2019-03-22T10:35:36.422Z,12.60
2019-03-22T10:36:36.494Z,12.70
2019-03-22T10:37:36.448Z,11.80
2019-03-22T10:38:36.518Z,11.20
2019-03-22T10:39:36.542Z,10.90
2019-03-22T10:40:36.581Z,11.20
2019-03-22T10:41:36.580Z,11.00
2019-03-22T10:42:36.553Z,12.80
2019-03-22T10:43:36.601Z,13.20
2019-03-22T10:44:39.298Z,11.40
2019-03-22T10:45:36.638Z,12.60
2019-03-22T10:46:36.607Z,10.70
2019-03-22T10:47:36.635Z,12.80
2019-03-22T10:48:36.672Z,11.70
2019-03-22T10:49:36.699Z,11.80
2019-03-22T10:50:36.732Z,11.20
2019-03-22T10:51:36.700Z,12.30
2019-03-22T10:52:36.762Z,11.10
2019-03-22T10:53:36.729Z,12.50
2019-03-22T10:54:36.779Z,10.60
2019-03-22T10:55:36.804Z,11.10
2019-03-22T10:56:36.788Z,12.00
2019-03-22T10:57:40.065Z,11.10
2019-03-22T10:58:36.830Z,12.40
2019-03-22T10:59:36.987Z,11.70
2019-03-22T11:00:36.861Z,11.40
2019-03-22T11:01:48.293Z,10.90
2019-03-22T11:02:36.919Z,10.10
2019-03-22T11:03:37.044Z,13.00
2019-03-22T11:04:36.933Z,12.10
2019-03-22T11:05:36.985Z,10.70
2019-03-22T11:06:36.969Z,10.50
2019-03-22T11:07:36.986Z,11.00
2019-03-22T11:08:37.007Z,11.30
2019-03-22T11:09:37.060Z,11.70
2019-03-22T11:10:37.154Z,10.80
2019-03-22T11:11:37.087Z,10.70
2019-03-22T11:12:37.081Z,11.30
2019-03-22T11:13:37.101Z,10.30
2019-03-22T11:14:37.158Z,11.60
2019-03-22T11:15:37.177Z,10.60
2019-03-22T11:16:37.151Z,11.80
2019-03-22T11:17:37.166Z,12.30
2019-03-22T11:18:37.780Z,9.80
2019-03-22T11:19:37.211Z,10.50
2019-03-22T11:20:37.254Z,10.20
2019-03-22T11:21:37.240Z,10.20
2019-03-22T11:22:37.258Z,11.10
2019-03-22T11:23:37.281Z,10.80
2019-03-22T11:24:37.295Z,9.40
2019-03-22T11:25:37.345Z,9.30
2019-03-22T11:26:37.368Z,9.10
2019-03-22T11:27:37.355Z,8.80
2019-03-22T11:28:37.366Z,8.50
2019-03-22T11:29:37.382Z,9.30
2019-03-22T11:30:37.440Z,10.20
2019-03-22T11:31:40.052Z,9.60
2019-03-22T11:32:37.443Z,9.60
2019-03-22T11:33:37.459Z,10.70
2019-03-22T11:34:37.479Z,8.60
2019-03-22T11:35:37.524Z,10.20
2019-03-22T11:36:37.548Z,9.50
2019-03-22T11:37:37.527Z,9.90
2019-03-22T11:38:37.544Z,8.40
2019-03-22T11:39:37.564Z,8.70
2019-03-22T11:40:37.627Z,8.70
2019-03-22T11:41:37.602Z,9.00
2019-03-22T11:42:37.617Z,10.50
2019-03-22T11:43:37.618Z,8.60
2019-03-22T11:44:37.647Z,8.60
2019-03-22T11:45:37.702Z,9.20
2019-03-22T11:46:37.681Z,9.90
2019-03-22T11:47:37.693Z,10.40
2019-03-22T11:48:37.722Z,9.20
2019-03-22T11:49:37.733Z,8.00
2019-03-22T11:50:37.785Z,8.90
2019-03-22T11:51:37.767Z,9.80
2019-03-22T11:52:37.785Z,11.30
2019-03-22T11:53:37.835Z,8.40
2019-03-22T11:54:37.819Z,8.80
2019-03-22T11:55:37.878Z,9.30
2019-03-22T11:56:37.866Z,9.30
2019-03-22T11:57:37.878Z,8.60
2019-03-22T11:58:37.930Z,8.20
2019-03-22T11:59:37.943Z,10.00
2019-03-22T12:00:37.958Z,8.50
2019-03-22T12:01:37.943Z,8.30
2019-03-22T12:02:37.966Z,8.80
2019-03-22T12:03:40.368Z,8.10
2019-03-22T12:04:38.028Z,8.70
2019-03-22T12:05:40.622Z,8.90
2019-03-22T12:06:38.038Z,9.20
2019-03-22T12:07:38.065Z,9.10
2019-03-22T12:08:38.102Z,9.30
2019-03-22T12:09:38.087Z,8.60
2019-03-22T12:10:38.197Z,9.00
2019-03-22T12:11:38.136Z,9.60
2019-03-22T12:12:38.138Z,9.20
2019-03-22T12:13:38.200Z,9.20
2019-03-22T12:14:38.174Z,9.10
2019-03-22T12:15:38.232Z,9.80
2019-03-22T12:16:38.211Z,9.30
2019-03-22T12:17:38.227Z,8.70
2019-03-22T12:18:38.243Z,9.80
2019-03-22T12:19:38.261Z,9.40
2019-03-22T12:20:38.317Z,9.00
2019-03-22T12:21:38.286Z,10.20
2019-03-22T12:22:38.582Z,9.40
2019-03-22T12:23:38.333Z,9.50
2019-03-22T12:24:38.345Z,9.00
2019-03-22T12:25:38.400Z,13.50
2019-03-22T12:26:38.412Z,9.80
2019-03-22T12:27:38.390Z,10.80
2019-03-22T12:28:38.415Z,10.30
2019-03-22T12:29:38.466Z,9.80
2019-03-22T12:30:38.487Z,10.70
2019-03-22T12:31:38.502Z,11.40
2019-03-22T12:32:38.518Z,10.80
2019-03-22T12:33:38.500Z,10.10
2019-03-22T12:34:38.518Z,10.90
2019-03-22T12:35:38.530Z,11.80
2019-03-22T12:36:38.548Z,11.70
2019-03-22T12:37:38.608Z,12.50
2019-03-22T12:38:38.627Z,10.30
2019-03-22T12:39:38.584Z,10.60
2019-03-22T12:40:38.633Z,10.80
2019-03-22T12:41:38.680Z,11.30
2019-03-22T12:42:38.663Z,10.60
2019-03-22T12:43:38.681Z,11.30
2019-03-22T12:44:38.732Z,11.50
2019-03-22T12:45:38.718Z,11.30
2019-03-22T12:46:38.732Z,10.80
2019-03-22T12:47:38.777Z,10.70
2019-03-22T12:48:38.780Z,11.20
2019-03-22T12:49:38.818Z,12.40
2019-03-22T12:50:38.840Z,11.80
2019-03-22T12:51:38.851Z,12.80
2019-03-22T12:52:38.831Z,12.30
2019-03-22T12:53:38.852Z,10.90
2019-03-22T12:54:38.867Z,11.70